»·PEaware :: N114LW L71-KHHR

N114LW :: L71-KHHR

FLIGHT INFORMATION

Flight Status: Arrived
Operator: Privately registered:
United States
More flights under this callsign
Pilot: Lee W. (44)
Aircraft: MOONEY M-20 201 202 205 220 ATS MSE
(M20P)
More flights by this aircraft type
Origin: L71 California City Mun
United States
Destination: KHHR Northrop/Hawthorne Mun
United States
More flights between these airports :: More routes between these airports
Route: +
File this flight plan on PilotEdge
Remarks:
Altitude:
(Current/Filed)
0ft
Speed:
(Current/Filed)
0kts
Departed: 29-Jun-13 06:52 PM
Arrived: 29-Jun-13 07:50 PM
Distance/Time
Traveled:
75nm/0:58
Distance/Time
To Go:
Arrived

Flight Plot

Page will automatically refresh every two minutes.

Flight plan parsing failed; only flown route is shown


Map Options




Map Legend


Flown Route
Filed Route
Departure Airport
Arrival Airport
Navaid (VOR, NDB)
Fix

Horizontal Profiles

Position Reports

Time Latitude Longitude Heading Altitude Ground
Speed
29-Jun-13 18:40 35.150779 -118.016388 352 2456ft 1kts
29-Jun-13 18:41 35.151515 -118.013172 70 2457ft 16kts
29-Jun-13 18:42 35.152767 -118.007345 71 2456ft 9kts
29-Jun-13 18:50 35.152861 -118.006928 359 2457ft 0kts
29-Jun-13 18:51 35.152989 -118.006908 26 2457ft 1kts
29-Jun-13 18:52 35.153277 -118.007110 255 2457ft 0kts
29-Jun-13 18:53 35.150975 -118.017497 249 2459ft 78kts
29-Jun-13 18:54 35.141649 -118.043919 254 3027ft 87kts
29-Jun-13 18:55 35.126174 -118.060097 198 3846ft 87kts
29-Jun-13 18:56 35.103416 -118.056720 181 4239ft 106kts
29-Jun-13 18:57 35.078240 -118.058978 198 4915ft 90kts
29-Jun-13 18:58 35.054894 -118.058988 167 5519ft 92kts
29-Jun-13 18:59 35.026330 -118.059095 196 5803ft 114kts
29-Jun-13 19:00 34.992621 -118.061167 193 6204ft 132kts
29-Jun-13 19:01 34.955703 -118.062181 192 6564ft 137kts
29-Jun-13 19:02 34.917559 -118.063090 195 6981ft 137kts
29-Jun-13 19:03 34.880185 -118.063548 192 7363ft 138kts
29-Jun-13 19:04 34.842946 -118.063560 192 7876ft 128kts
29-Jun-13 19:05 34.808984 -118.063717 191 8471ft 117kts
29-Jun-13 19:06 34.778005 -118.063689 192 9068ft 107kts
29-Jun-13 19:07 34.750549 -118.063724 192 9645ft 95kts
29-Jun-13 19:08 34.726444 -118.063727 193 10216ft 77kts
29-Jun-13 19:09 34.703541 -118.057211 157 10459ft 106kts
29-Jun-13 19:10 34.673980 -118.034540 159 10450ft 143kts
29-Jun-13 19:11 34.640135 -118.012253 167 10947ft 128kts
29-Jun-13 19:12 34.609100 -117.999519 173 11475ft 115kts
29-Jun-13 19:13 34.574720 -117.985760 170 11457ft 146kts
29-Jun-13 19:14 34.534818 -117.969722 168 11452ft 159kts
29-Jun-13 19:15 34.495406 -117.953895 168 11449ft 162kts
29-Jun-13 19:16 34.454829 -117.937511 170 11450ft 154kts
29-Jun-13 19:17 34.434991 -117.929857 168 11452ft 153kts
29-Jun-13 19:18 34.400849 -117.916096 170 11401ft 145kts
29-Jun-13 19:19 34.363936 -117.901354 169 11449ft 146kts
29-Jun-13 19:20 34.327340 -117.889091 172 11402ft 142kts
29-Jun-13 19:21 34.289682 -117.873829 165 11372ft 143kts
29-Jun-13 19:22 34.252260 -117.858412 162 11344ft 143kts
29-Jun-13 19:23 34.216618 -117.843638 163 11330ft 142kts
29-Jun-13 19:24 34.184823 -117.830594 163 11330ft 141kts
29-Jun-13 19:25 34.151280 -117.816928 164 11328ft 140kts
29-Jun-13 19:26 34.120647 -117.804166 162 11323ft 140kts
29-Jun-13 19:27 34.088844 -117.791048 163 11196ft 144kts
29-Jun-13 19:28 34.058188 -117.788242 229 10576ft 151kts
29-Jun-13 19:29 34.045800 -117.822369 244 10022ft 158kts
29-Jun-13 19:30 34.033911 -117.857077 244 9466ft 161kts
29-Jun-13 19:31 34.021671 -117.892354 244 8906ft 163kts
29-Jun-13 19:32 34.008586 -117.929483 244 8317ft 163kts
29-Jun-13 19:33 34.000606 -117.964951 261 7763ft 158kts
29-Jun-13 19:34 33.996724 -117.995967 255 7279ft 154kts
29-Jun-13 19:35 33.990950 -118.023206 252 6834ft 152kts
29-Jun-13 19:36 33.975575 -118.050386 231 6304ft 148kts
29-Jun-13 19:37 33.958348 -118.077943 246 5739ft 148kts
29-Jun-13 19:38 33.951708 -118.101922 268 5341ft 149kts
29-Jun-13 19:39 33.951050 -118.125864 266 4960ft 148kts
29-Jun-13 19:40 33.947075 -118.148234 248 4639ft 142kts
29-Jun-13 19:41 33.941189 -118.165748 246 4378ft 122kts
29-Jun-13 19:42 33.936219 -118.183696 253 3983ft 115kts
29-Jun-13 19:43 33.931706 -118.202907 254 3507ft 113kts
29-Jun-13 19:44 33.928376 -118.223568 261 2826ft 125kts
29-Jun-13 19:45 33.926243 -118.242133 258 2801ft 80kts
29-Jun-13 19:46 33.925459 -118.257785 266 2362ft 91kts
29-Jun-13 19:47 33.925265 -118.274798 268 1592ft 117kts
29-Jun-13 19:48 33.924543 -118.295760 265 956ft 103kts
29-Jun-13 19:49 33.923706 -118.315066 268 416ft 91kts
29-Jun-13 19:50 33.923086 -118.329463 267 70ft 86kts
29-Jun-13 19:51 33.922685 -118.338345 268 69ft 23kts
29-Jun-13 19:52 33.922204 -118.339344 104 69ft 6kts
29-Jun-13 19:53 33.921969 -118.339129 180 69ft 0kts

Navigation Log

Ident Type
Flight plan parsing failed, navigation log unavailable